sensor_id;sensor_type;location;lat;lon;timestamp;P1;durP1;ratioP1;P2;durP2;ratioP2
41263;SDS011;26998;48.714;9.414;2023-03-05T00:00:55;54.30;;;26.13;;
41263;SDS011;26998;48.714;9.414;2023-03-05T00:03:21;49.97;;;25.03;;
41263;SDS011;26998;48.714;9.414;2023-03-05T00:05:48;49.43;;;25.00;;
41263;SDS011;26998;48.714;9.414;2023-03-05T00:08:15;53.90;;;26.03;;
41263;SDS011;26998;48.714;9.414;2023-03-05T00:10:41;48.58;;;23.48;;
41263;SDS011;26998;48.714;9.414;2023-03-05T00:13:08;56.97;;;26.23;;
41263;SDS011;26998;48.714;9.414;2023-03-05T00:15:39;58.28;;;27.80;;
41263;SDS011;26998;48.714;9.414;2023-03-05T00:18:07;52.90;;;24.55;;
41263;SDS011;26998;48.714;9.414;2023-03-05T00:20:34;59.00;;;26.17;;
41263;SDS011;26998;48.714;9.414;2023-03-05T00:23:00;55.70;;;25.00;;
41263;SDS011;26998;48.714;9.414;2023-03-05T00:25:27;54.75;;;24.52;;
41263;SDS011;26998;48.714;9.414;2023-03-05T00:27:54;58.13;;;27.65;;
41263;SDS011;26998;48.714;9.414;2023-03-05T00:30:25;51.38;;;25.63;;
41263;SDS011;26998;48.714;9.414;2023-03-05T00:32:52;50.03;;;24.38;;
41263;SDS011;26998;48.714;9.414;2023-03-05T00:35:19;55.53;;;25.67;;
41263;SDS011;26998;48.714;9.414;2023-03-05T00:37:46;52.30;;;27.33;;
41263;SDS011;26998;48.714;9.414;2023-03-05T00:40:12;59.80;;;27.02;;
41263;SDS011;26998;48.714;9.414;2023-03-05T00:42:40;59.60;;;26.50;;
41263;SDS011;26998;48.714;9.414;2023-03-05T00:45:08;57.55;;;27.33;;
41263;SDS011;26998;48.714;9.414;2023-03-05T00:47:36;51.17;;;25.77;;
41263;SDS011;26998;48.714;9.414;2023-03-05T00:50:04;57.38;;;26.33;;
41263;SDS011;26998;48.714;9.414;2023-03-05T00:52:32;53.10;;;25.30;;
41263;SDS011;26998;48.714;9.414;2023-03-05T00:54:58;60.83;;;27.45;;
41263;SDS011;26998;48.714;9.414;2023-03-05T00:57:25;55.40;;;26.98;;
41263;SDS011;26998;48.714;9.414;2023-03-05T00:59:53;55.65;;;26.67;;
41263;SDS011;26998;48.714;9.414;2023-03-05T01:02:21;56.42;;;25.48;;
41263;SDS011;26998;48.714;9.414;2023-03-05T01:04:48;61.47;;;26.98;;
41263;SDS011;26998;48.714;9.414;2023-03-05T01:07:15;50.22;;;25.67;;
41263;SDS011;26998;48.714;9.414;2023-03-05T01:09:41;57.33;;;26.47;;
41263;SDS011;26998;48.714;9.414;2023-03-05T01:12:07;52.53;;;26.27;;
41263;SDS011;26998;48.714;9.414;2023-03-05T01:14:34;59.50;;;27.07;;
41263;SDS011;26998;48.714;9.414;2023-03-05T01:17:01;52.00;;;25.47;;
41263;SDS011;26998;48.714;9.414;2023-03-05T01:19:28;56.42;;;28.10;;
41263;SDS011;26998;48.714;9.414;2023-03-05T01:21:54;61.87;;;26.93;;
41263;SDS011;26998;48.714;9.414;2023-03-05T01:24:21;60.30;;;26.77;;
41263;SDS011;26998;48.714;9.414;2023-03-05T01:26:48;67.63;;;27.90;;
41263;SDS011;26998;48.714;9.414;2023-03-05T01:29:14;60.77;;;28.97;;
41263;SDS011;26998;48.714;9.414;2023-03-05T01:31:41;49.42;;;26.00;;
41263;SDS011;26998;48.714;9.414;2023-03-05T01:34:07;61.38;;;26.00;;
41263;SDS011;26998;48.714;9.414;2023-03-05T01:36:34;55.38;;;26.58;;
41263;SDS011;26998;48.714;9.414;2023-03-05T01:39:00;53.80;;;24.67;;
41263;SDS011;26998;48.714;9.414;2023-03-05T01:41:27;49.10;;;25.23;;
41263;SDS011;26998;48.714;9.414;2023-03-05T01:43:54;52.80;;;25.38;;
41263;SDS011;26998;48.714;9.414;2023-03-05T01:49:02;56.30;;;26.07;;
41263;SDS011;26998;48.714;9.414;2023-03-05T01:51:49;55.53;;;26.63;;
41263;SDS011;26998;48.714;9.414;2023-03-05T01:54:20;55.63;;;25.73;;
41263;SDS011;26998;48.714;9.414;2023-03-05T01:56:50;54.05;;;25.80;;
41263;SDS011;26998;48.714;9.414;2023-03-05T01:59:18;54.97;;;25.80;;
41263;SDS011;26998;48.714;9.414;2023-03-05T02:01:47;51.50;;;25.08;;
41263;SDS011;26998;48.714;9.414;2023-03-05T02:04:17;54.55;;;25.80;;
41263;SDS011;26998;48.714;9.414;2023-03-05T02:06:44;60.38;;;28.25;;
41263;SDS011;26998;48.714;9.414;2023-03-05T02:09:12;53.33;;;25.30;;
41263;SDS011;26998;48.714;9.414;2023-03-05T02:11:38;53.87;;;27.13;;
41263;SDS011;26998;48.714;9.414;2023-03-05T02:14:05;49.78;;;25.95;;
41263;SDS011;26998;48.714;9.414;2023-03-05T02:16:35;52.15;;;27.08;;
41263;SDS011;26998;48.714;9.414;2023-03-05T02:19:08;53.35;;;26.13;;
41263;SDS011;26998;48.714;9.414;2023-03-05T02:21:38;58.03;;;27.07;;
41263;SDS011;26998;48.714;9.414;2023-03-05T02:24:08;62.80;;;26.92;;
41263;SDS011;26998;48.714;9.414;2023-03-05T02:26:36;52.40;;;26.77;;
41263;SDS011;26998;48.714;9.414;2023-03-05T02:29:03;48.22;;;24.95;;
41263;SDS011;26998;48.714;9.414;2023-03-05T02:31:33;51.92;;;25.02;;
41263;SDS011;26998;48.714;9.414;2023-03-05T02:34:00;62.10;;;27.93;;
41263;SDS011;26998;48.714;9.414;2023-03-05T02:36:27;49.33;;;25.30;;
41263;SDS011;26998;48.714;9.414;2023-03-05T02:38:53;48.67;;;25.02;;
41263;SDS011;26998;48.714;9.414;2023-03-05T02:41:20;54.05;;;25.33;;
41263;SDS011;26998;48.714;9.414;2023-03-05T02:43:47;58.45;;;25.98;;
41263;SDS011;26998;48.714;9.414;2023-03-05T02:46:13;51.15;;;24.45;;
41263;SDS011;26998;48.714;9.414;2023-03-05T02:48:40;55.25;;;25.50;;
41263;SDS011;26998;48.714;9.414;2023-03-05T02:51:07;46.75;;;24.55;;
41263;SDS011;26998;48.714;9.414;2023-03-05T02:53:33;50.38;;;24.33;;
41263;SDS011;26998;48.714;9.414;2023-03-05T02:56:00;55.80;;;26.10;;
41263;SDS011;26998;48.714;9.414;2023-03-05T02:58:26;55.97;;;25.05;;
41263;SDS011;26998;48.714;9.414;2023-03-05T03:00:53;51.35;;;25.38;;
41263;SDS011;26998;48.714;9.414;2023-03-05T03:03:19;60.13;;;28.45;;
41263;SDS011;26998;48.714;9.414;2023-03-05T03:05:46;55.90;;;27.50;;
41263;SDS011;26998;48.714;9.414;2023-03-05T03:08:13;57.28;;;27.25;;
41263;SDS011;26998;48.714;9.414;2023-03-05T03:10:39;53.63;;;26.70;;
41263;SDS011;26998;48.714;9.414;2023-03-05T03:13:06;60.80;;;27.40;;
41263;SDS011;26998;48.714;9.414;2023-03-05T03:15:33;56.20;;;27.30;;
41263;SDS011;26998;48.714;9.414;2023-03-05T03:18:00;48.13;;;23.80;;
41263;SDS011;26998;48.714;9.414;2023-03-05T03:20:27;63.25;;;27.45;;
41263;SDS011;26998;48.714;9.414;2023-03-05T03:22:53;53.63;;;27.15;;
41263;SDS011;26998;48.714;9.414;2023-03-05T03:25:21;51.15;;;25.40;;
41263;SDS011;26998;48.714;9.414;2023-03-05T03:27:48;58.63;;;25.63;;
41263;SDS011;26998;48.714;9.414;2023-03-05T03:30:15;50.97;;;25.95;;
41263;SDS011;26998;48.714;9.414;2023-03-05T03:32:42;60.83;;;28.13;;
41263;SDS011;26998;48.714;9.414;2023-03-05T03:35:09;63.25;;;27.20;;
41263;SDS011;26998;48.714;9.414;2023-03-05T03:37:37;60.58;;;27.00;;
41263;SDS011;26998;48.714;9.414;2023-03-05T03:40:04;57.67;;;27.05;;
41263;SDS011;26998;48.714;9.414;2023-03-05T03:42:32;58.67;;;27.25;;
41263;SDS011;26998;48.714;9.414;2023-03-05T03:44:58;62.97;;;29.17;;
41263;SDS011;26998;48.714;9.414;2023-03-05T03:47:25;55.85;;;26.33;;
41263;SDS011;26998;48.714;9.414;2023-03-05T03:49:54;54.50;;;26.03;;
41263;SDS011;26998;48.714;9.414;2023-03-05T03:52:21;58.47;;;26.93;;
41263;SDS011;26998;48.714;9.414;2023-03-05T03:54:48;55.00;;;25.87;;
41263;SDS011;26998;48.714;9.414;2023-03-05T03:57:15;62.40;;;27.70;;
41263;SDS011;26998;48.714;9.414;2023-03-05T03:59:42;56.13;;;27.00;;
41263;SDS011;26998;48.714;9.414;2023-03-05T04:02:08;58.83;;;27.10;;
41263;SDS011;26998;48.714;9.414;2023-03-05T04:04:35;56.55;;;25.80;;
41263;SDS011;26998;48.714;9.414;2023-03-05T04:07:01;57.53;;;25.80;;
41263;SDS011;26998;48.714;9.414;2023-03-05T04:09:27;59.27;;;27.13;;
41263;SDS011;26998;48.714;9.414;2023-03-05T04:11:54;54.70;;;26.83;;
41263;SDS011;26998;48.714;9.414;2023-03-05T04:14:20;58.78;;;27.40;;
41263;SDS011;26998;48.714;9.414;2023-03-05T04:16:47;57.10;;;27.33;;
41263;SDS011;26998;48.714;9.414;2023-03-05T04:19:14;54.47;;;26.50;;
41263;SDS011;26998;48.714;9.414;2023-03-05T04:21:40;58.83;;;27.90;;
41263;SDS011;26998;48.714;9.414;2023-03-05T04:24:07;54.22;;;26.02;;
41263;SDS011;26998;48.714;9.414;2023-03-05T04:26:34;56.93;;;26.53;;
41263;SDS011;26998;48.714;9.414;2023-03-05T04:29:00;50.08;;;24.13;;
41263;SDS011;26998;48.714;9.414;2023-03-05T04:31:27;56.53;;;26.30;;
41263;SDS011;26998;48.714;9.414;2023-03-05T04:33:53;56.63;;;26.33;;
41263;SDS011;26998;48.714;9.414;2023-03-05T04:36:20;53.43;;;25.10;;
41263;SDS011;26998;48.714;9.414;2023-03-05T04:38:46;55.83;;;26.27;;
41263;SDS011;26998;48.714;9.414;2023-03-05T04:41:13;59.92;;;27.92;;
41263;SDS011;26998;48.714;9.414;2023-03-05T04:43:40;59.83;;;26.13;;
41263;SDS011;26998;48.714;9.414;2023-03-05T04:46:06;58.20;;;26.50;;
41263;SDS011;26998;48.714;9.414;2023-03-05T04:48:33;56.93;;;27.43;;
41263;SDS011;26998;48.714;9.414;2023-03-05T04:51:00;59.20;;;27.37;;
41263;SDS011;26998;48.714;9.414;2023-03-05T04:53:26;53.27;;;28.27;;
41263;SDS011;26998;48.714;9.414;2023-03-05T04:55:53;61.27;;;27.47;;
41263;SDS011;26998;48.714;9.414;2023-03-05T04:58:21;58.17;;;26.85;;
41263;SDS011;26998;48.714;9.414;2023-03-05T05:00:48;62.85;;;26.60;;
41263;SDS011;26998;48.714;9.414;2023-03-05T05:03:15;48.87;;;24.17;;
41263;SDS011;26998;48.714;9.414;2023-03-05T05:05:41;54.15;;;25.83;;
41263;SDS011;26998;48.714;9.414;2023-03-05T05:08:08;51.30;;;25.57;;
41263;SDS011;26998;48.714;9.414;2023-03-05T05:10:35;54.97;;;26.27;;
41263;SDS011;26998;48.714;9.414;2023-03-05T05:13:02;53.07;;;24.97;;
41263;SDS011;26998;48.714;9.414;2023-03-05T05:15:29;46.53;;;24.43;;
41263;SDS011;26998;48.714;9.414;2023-03-05T05:17:55;57.65;;;26.88;;
41263;SDS011;26998;48.714;9.414;2023-03-05T05:20:22;54.90;;;26.13;;
41263;SDS011;26998;48.714;9.414;2023-03-05T05:22:48;54.30;;;26.50;;
41263;SDS011;26998;48.714;9.414;2023-03-05T05:25:15;59.13;;;27.20;;
41263;SDS011;26998;48.714;9.414;2023-03-05T05:27:42;53.35;;;26.98;;
41263;SDS011;26998;48.714;9.414;2023-03-05T05:30:08;55.53;;;25.73;;
41263;SDS011;26998;48.714;9.414;2023-03-05T05:32:35;61.47;;;27.52;;
41263;SDS011;26998;48.714;9.414;2023-03-05T05:35:02;56.87;;;26.37;;
41263;SDS011;26998;48.714;9.414;2023-03-05T05:37:29;56.60;;;26.40;;
41263;SDS011;26998;48.714;9.414;2023-03-05T05:39:55;57.57;;;26.90;;
41263;SDS011;26998;48.714;9.414;2023-03-05T05:42:22;52.53;;;24.97;;
41263;SDS011;26998;48.714;9.414;2023-03-05T05:44:50;52.67;;;24.83;;
41263;SDS011;26998;48.714;9.414;2023-03-05T05:47:17;52.85;;;26.50;;
41263;SDS011;26998;48.714;9.414;2023-03-05T05:49:44;55.97;;;26.23;;
41263;SDS011;26998;48.714;9.414;2023-03-05T05:52:10;59.13;;;27.10;;
41263;SDS011;26998;48.714;9.414;2023-03-05T05:54:37;54.10;;;25.85;;
41263;SDS011;26998;48.714;9.414;2023-03-05T05:57:04;55.70;;;27.70;;
41263;SDS011;26998;48.714;9.414;2023-03-05T05:59:31;54.53;;;26.20;;
41263;SDS011;26998;48.714;9.414;2023-03-05T06:01:58;58.87;;;25.93;;
41263;SDS011;26998;48.714;9.414;2023-03-05T06:04:25;59.37;;;26.57;;
41263;SDS011;26998;48.714;9.414;2023-03-05T06:06:51;54.67;;;25.37;;
41263;SDS011;26998;48.714;9.414;2023-03-05T06:09:18;57.13;;;27.60;;
41263;SDS011;26998;48.714;9.414;2023-03-05T06:11:45;54.83;;;24.77;;
41263;SDS011;26998;48.714;9.414;2023-03-05T06:14:11;59.77;;;27.50;;
41263;SDS011;26998;48.714;9.414;2023-03-05T06:16:39;65.07;;;28.37;;
41263;SDS011;26998;48.714;9.414;2023-03-05T06:19:05;55.47;;;26.07;;
41263;SDS011;26998;48.714;9.414;2023-03-05T06:21:33;59.10;;;27.20;;
41263;SDS011;26998;48.714;9.414;2023-03-05T06:24:00;55.03;;;25.08;;
41263;SDS011;26998;48.714;9.414;2023-03-05T06:26:27;47.53;;;24.27;;
41263;SDS011;26998;48.714;9.414;2023-03-05T06:28:54;59.15;;;24.73;;
41263;SDS011;26998;48.714;9.414;2023-03-05T06:31:22;56.13;;;27.00;;
41263;SDS011;26998;48.714;9.414;2023-03-05T06:33:50;55.60;;;26.83;;
41263;SDS011;26998;48.714;9.414;2023-03-05T06:36:18;51.30;;;25.63;;
41263;SDS011;26998;48.714;9.414;2023-03-05T06:38:47;49.67;;;25.73;;
41263;SDS011;26998;48.714;9.414;2023-03-05T06:41:19;60.58;;;25.85;;
41263;SDS011;26998;48.714;9.414;2023-03-05T06:43:47;53.03;;;26.10;;
41263;SDS011;26998;48.714;9.414;2023-03-05T06:48:42;57.47;;;25.43;;
41263;SDS011;26998;48.714;9.414;2023-03-05T06:51:13;54.00;;;25.33;;
41263;SDS011;26998;48.714;9.414;2023-03-05T06:53:39;41.70;;;20.58;;
41263;SDS011;26998;48.714;9.414;2023-03-05T06:56:06;61.30;;;27.33;;
41263;SDS011;26998;48.714;9.414;2023-03-05T06:58:33;55.73;;;25.37;;
41263;SDS011;26998;48.714;9.414;2023-03-05T07:00:59;57.97;;;26.60;;
41263;SDS011;26998;48.714;9.414;2023-03-05T07:03:26;56.58;;;26.63;;
41263;SDS011;26998;48.714;9.414;2023-03-05T07:05:52;62.40;;;26.60;;
41263;SDS011;26998;48.714;9.414;2023-03-05T07:08:19;53.73;;;26.07;;
41263;SDS011;26998;48.714;9.414;2023-03-05T07:10:45;60.55;;;24.38;;
41263;SDS011;26998;48.714;9.414;2023-03-05T07:13:14;52.72;;;24.38;;
41263;SDS011;26998;48.714;9.414;2023-03-05T07:15:40;53.63;;;27.20;;
41263;SDS011;26998;48.714;9.414;2023-03-05T07:18:08;60.17;;;27.70;;
41263;SDS011;26998;48.714;9.414;2023-03-05T07:20:35;59.60;;;26.37;;
41263;SDS011;26998;48.714;9.414;2023-03-05T07:23:03;50.60;;;25.40;;
41263;SDS011;26998;48.714;9.414;2023-03-05T07:25:29;54.25;;;26.35;;
41263;SDS011;26998;48.714;9.414;2023-03-05T07:27:56;54.00;;;27.00;;
41263;SDS011;26998;48.714;9.414;2023-03-05T07:30:23;57.17;;;25.95;;
41263;SDS011;26998;48.714;9.414;2023-03-05T07:32:49;55.90;;;25.58;;
41263;SDS011;26998;48.714;9.414;2023-03-05T07:35:16;54.65;;;25.92;;
41263;SDS011;26998;48.714;9.414;2023-03-05T07:37:43;60.20;;;27.27;;
41263;SDS011;26998;48.714;9.414;2023-03-05T07:40:09;53.55;;;26.65;;
41263;SDS011;26998;48.714;9.414;2023-03-05T07:42:36;62.23;;;28.00;;
41263;SDS011;26998;48.714;9.414;2023-03-05T07:45:03;53.92;;;25.58;;
41263;SDS011;26998;48.714;9.414;2023-03-05T07:47:30;53.08;;;24.98;;
41263;SDS011;26998;48.714;9.414;2023-03-05T07:49:57;51.65;;;24.02;;
41263;SDS011;26998;48.714;9.414;2023-03-05T07:52:23;52.25;;;25.17;;
41263;SDS011;26998;48.714;9.414;2023-03-05T07:54:50;53.83;;;25.77;;
41263;SDS011;26998;48.714;9.414;2023-03-05T07:57:17;49.92;;;24.80;;
41263;SDS011;26998;48.714;9.414;2023-03-05T07:59:43;59.33;;;27.52;;
41263;SDS011;26998;48.714;9.414;2023-03-05T08:02:10;62.58;;;27.90;;
41263;SDS011;26998;48.714;9.414;2023-03-05T08:04:38;59.53;;;26.42;;
41263;SDS011;26998;48.714;9.414;2023-03-05T08:07:05;49.33;;;25.40;;
41263;SDS011;26998;48.714;9.414;2023-03-05T08:09:32;48.92;;;24.05;;
41263;SDS011;26998;48.714;9.414;2023-03-05T08:11:58;56.13;;;27.35;;
41263;SDS011;26998;48.714;9.414;2023-03-05T08:14:25;51.83;;;26.55;;
41263;SDS011;26998;48.714;9.414;2023-03-05T08:16:51;56.97;;;25.75;;
41263;SDS011;26998;48.714;9.414;2023-03-05T08:19:18;58.38;;;25.88;;
41263;SDS011;26998;48.714;9.414;2023-03-05T08:21:45;57.85;;;27.27;;
41263;SDS011;26998;48.714;9.414;2023-03-05T08:24:12;51.47;;;27.27;;
41263;SDS011;26998;48.714;9.414;2023-03-05T08:26:39;52.63;;;24.88;;
41263;SDS011;26998;48.714;9.414;2023-03-05T08:29:07;53.17;;;24.75;;
41263;SDS011;26998;48.714;9.414;2023-03-05T08:31:35;49.25;;;24.08;;
41263;SDS011;26998;48.714;9.414;2023-03-05T08:34:02;46.22;;;22.70;;
41263;SDS011;26998;48.714;9.414;2023-03-05T08:36:30;47.40;;;22.38;;
41263;SDS011;26998;48.714;9.414;2023-03-05T08:38:57;48.15;;;24.42;;
41263;SDS011;26998;48.714;9.414;2023-03-05T08:41:24;48.08;;;23.33;;
41263;SDS011;26998;48.714;9.414;2023-03-05T08:43:50;50.05;;;24.23;;
41263;SDS011;26998;48.714;9.414;2023-03-05T08:46:17;57.42;;;25.77;;
41263;SDS011;26998;48.714;9.414;2023-03-05T08:48:43;49.05;;;24.88;;
41263;SDS011;26998;48.714;9.414;2023-03-05T08:51:11;52.30;;;23.98;;
41263;SDS011;26998;48.714;9.414;2023-03-05T08:53:40;49.00;;;24.25;;
41263;SDS011;26998;48.714;9.414;2023-03-05T08:56:08;50.65;;;24.83;;
41263;SDS011;26998;48.714;9.414;2023-03-05T08:58:35;46.85;;;24.10;;
41263;SDS011;26998;48.714;9.414;2023-03-05T09:01:02;56.00;;;25.52;;
41263;SDS011;26998;48.714;9.414;2023-03-05T09:03:29;66.40;;;26.80;;
41263;SDS011;26998;48.714;9.414;2023-03-05T09:05:59;51.80;;;24.92;;
41263;SDS011;26998;48.714;9.414;2023-03-05T09:08:30;50.80;;;25.55;;
41263;SDS011;26998;48.714;9.414;2023-03-05T09:10:57;48.53;;;25.23;;
41263;SDS011;26998;48.714;9.414;2023-03-05T09:13:27;52.70;;;24.88;;
41263;SDS011;26998;48.714;9.414;2023-03-05T09:15:57;48.13;;;23.98;;
41263;SDS011;26998;48.714;9.414;2023-03-05T09:18:26;49.85;;;25.70;;
41263;SDS011;26998;48.714;9.414;2023-03-05T09:20:55;53.38;;;24.17;;
41263;SDS011;26998;48.714;9.414;2023-03-05T09:23:23;47.53;;;24.23;;
41263;SDS011;26998;48.714;9.414;2023-03-05T09:25:50;52.20;;;23.48;;
41263;SDS011;26998;48.714;9.414;2023-03-05T09:28:16;47.63;;;23.67;;
41263;SDS011;26998;48.714;9.414;2023-03-05T09:30:43;41.53;;;21.75;;
41263;SDS011;26998;48.714;9.414;2023-03-05T09:33:09;51.05;;;24.25;;
41263;SDS011;26998;48.714;9.414;2023-03-05T09:35:36;46.72;;;23.58;;
41263;SDS011;26998;48.714;9.414;2023-03-05T09:38:04;47.17;;;22.77;;
41263;SDS011;26998;48.714;9.414;2023-03-05T09:40:51;49.22;;;23.73;;
41263;SDS011;26998;48.714;9.414;2023-03-05T09:43:36;46.45;;;22.17;;
41263;SDS011;26998;48.714;9.414;2023-03-05T09:46:17;40.45;;;22.90;;
41263;SDS011;26998;48.714;9.414;2023-03-05T09:49:14;45.00;;;21.48;;
41263;SDS011;26998;48.714;9.414;2023-03-05T09:52:06;37.03;;;19.92;;
41263;SDS011;26998;48.714;9.414;2023-03-05T09:54:41;41.33;;;23.15;;
41263;SDS011;26998;48.714;9.414;2023-03-05T09:57:14;43.33;;;22.50;;
41263;SDS011;26998;48.714;9.414;2023-03-05T09:59:46;39.22;;;20.67;;
41263;SDS011;26998;48.714;9.414;2023-03-05T10:02:18;37.72;;;20.27;;
41263;SDS011;26998;48.714;9.414;2023-03-05T10:04:51;36.60;;;19.85;;
41263;SDS011;26998;48.714;9.414;2023-03-05T10:07:24;47.92;;;23.63;;
41263;SDS011;26998;48.714;9.414;2023-03-05T10:09:58;45.63;;;23.00;;
41263;SDS011;26998;48.714;9.414;2023-03-05T10:15:17;48.63;;;22.67;;
41263;SDS011;26998;48.714;9.414;2023-03-05T10:23:28;40.38;;;20.42;;
41263;SDS011;26998;48.714;9.414;2023-03-05T10:32:02;37.47;;;19.95;;
41263;SDS011;26998;48.714;9.414;2023-03-05T10:35:20;36.42;;;19.63;;
41263;SDS011;26998;48.714;9.414;2023-03-05T10:37:51;31.25;;;17.73;;
41263;SDS011;26998;48.714;9.414;2023-03-05T10:40:35;35.13;;;17.40;;
41263;SDS011;26998;48.714;9.414;2023-03-05T10:45:58;28.38;;;15.52;;
41263;SDS011;26998;48.714;9.414;2023-03-05T10:48:45;33.35;;;17.60;;
41263;SDS011;26998;48.714;9.414;2023-03-05T10:54:03;36.15;;;17.45;;
41263;SDS011;26998;48.714;9.414;2023-03-05T10:56:42;37.63;;;19.27;;
41263;SDS011;26998;48.714;9.414;2023-03-05T10:59:08;33.13;;;17.65;;
41263;SDS011;26998;48.714;9.414;2023-03-05T11:01:35;31.88;;;16.77;;
41263;SDS011;26998;48.714;9.414;2023-03-05T11:04:02;32.00;;;17.17;;
41263;SDS011;26998;48.714;9.414;2023-03-05T11:06:38;29.80;;;17.35;;
41263;SDS011;26998;48.714;9.414;2023-03-05T11:14:27;35.95;;;19.08;;
41263;SDS011;26998;48.714;9.414;2023-03-05T11:16:55;36.85;;;18.10;;
41263;SDS011;26998;48.714;9.414;2023-03-05T11:19:26;33.90;;;19.13;;
41263;SDS011;26998;48.714;9.414;2023-03-05T11:24:35;43.78;;;21.00;;
41263;SDS011;26998;48.714;9.414;2023-03-05T11:27:19;40.38;;;20.85;;
41263;SDS011;26998;48.714;9.414;2023-03-05T11:29:49;30.27;;;17.60;;
41263;SDS011;26998;48.714;9.414;2023-03-05T11:32:25;36.80;;;20.63;;
41263;SDS011;26998;48.714;9.414;2023-03-05T11:34:53;38.28;;;18.15;;
41263;SDS011;26998;48.714;9.414;2023-03-05T11:37:28;38.40;;;20.20;;
41263;SDS011;26998;48.714;9.414;2023-03-05T11:42:47;33.35;;;19.38;;
41263;SDS011;26998;48.714;9.414;2023-03-05T11:45:23;32.65;;;16.05;;
41263;SDS011;26998;48.714;9.414;2023-03-05T11:47:52;32.45;;;17.77;;
41263;SDS011;26998;48.714;9.414;2023-03-05T11:55:45;28.88;;;17.38;;
41263;SDS011;26998;48.714;9.414;2023-03-05T12:00:56;34.35;;;19.40;;
41263;SDS011;26998;48.714;9.414;2023-03-05T12:03:24;37.33;;;20.38;;
41263;SDS011;26998;48.714;9.414;2023-03-05T12:09:03;30.33;;;16.08;;
41263;SDS011;26998;48.714;9.414;2023-03-05T12:11:38;32.10;;;17.10;;
41263;SDS011;26998;48.714;9.414;2023-03-05T12:14:27;31.90;;;18.10;;
41263;SDS011;26998;48.714;9.414;2023-03-05T12:17:05;32.08;;;16.75;;
41263;SDS011;26998;48.714;9.414;2023-03-05T12:22:24;32.22;;;17.95;;
41263;SDS011;26998;48.714;9.414;2023-03-05T12:25:15;32.53;;;16.70;;
41263;SDS011;26998;48.714;9.414;2023-03-05T12:27:49;30.65;;;16.77;;
41263;SDS011;26998;48.714;9.414;2023-03-05T12:33:04;36.85;;;17.35;;
41263;SDS011;26998;48.714;9.414;2023-03-05T12:35:32;34.95;;;17.25;;
41263;SDS011;26998;48.714;9.414;2023-03-05T12:38:01;35.38;;;17.20;;
41263;SDS011;26998;48.714;9.414;2023-03-05T12:40:52;36.03;;;17.40;;
41263;SDS011;26998;48.714;9.414;2023-03-05T12:46:20;32.13;;;16.40;;
41263;SDS011;26998;48.714;9.414;2023-03-05T12:48:48;32.25;;;16.00;;
41263;SDS011;26998;48.714;9.414;2023-03-05T12:51:26;28.70;;;15.75;;
41263;SDS011;26998;48.714;9.414;2023-03-05T12:53:55;31.27;;;15.50;;
41263;SDS011;26998;48.714;9.414;2023-03-05T12:56:24;35.63;;;15.40;;
41263;SDS011;26998;48.714;9.414;2023-03-05T12:58:55;29.65;;;15.07;;
41263;SDS011;26998;48.714;9.414;2023-03-05T13:01:31;30.42;;;15.80;;
41263;SDS011;26998;48.714;9.414;2023-03-05T13:04:15;27.48;;;14.10;;
41263;SDS011;26998;48.714;9.414;2023-03-05T13:06:44;29.27;;;15.35;;
41263;SDS011;26998;48.714;9.414;2023-03-05T13:11:40;25.50;;;13.63;;
41263;SDS011;26998;48.714;9.414;2023-03-05T13:14:25;27.55;;;15.77;;
41263;SDS011;26998;48.714;9.414;2023-03-05T13:16:55;27.20;;;14.52;;
41263;SDS011;26998;48.714;9.414;2023-03-05T13:19:21;31.67;;;15.55;;
41263;SDS011;26998;48.714;9.414;2023-03-05T13:21:58;27.42;;;15.40;;
41263;SDS011;26998;48.714;9.414;2023-03-05T13:24:27;23.20;;;13.68;;
41263;SDS011;26998;48.714;9.414;2023-03-05T13:26:55;23.75;;;14.40;;
41263;SDS011;26998;48.714;9.414;2023-03-05T13:29:23;26.05;;;14.32;;
41263;SDS011;26998;48.714;9.414;2023-03-05T13:34:20;30.38;;;14.88;;
41263;SDS011;26998;48.714;9.414;2023-03-05T13:36:53;26.75;;;14.48;;
41263;SDS011;26998;48.714;9.414;2023-03-05T13:39:24;26.92;;;14.25;;
41263;SDS011;26998;48.714;9.414;2023-03-05T13:42:13;26.95;;;14.13;;
41263;SDS011;26998;48.714;9.414;2023-03-05T13:44:42;26.33;;;13.80;;
41263;SDS011;26998;48.714;9.414;2023-03-05T13:47:28;26.23;;;12.50;;
41263;SDS011;26998;48.714;9.414;2023-03-05T13:49:57;25.40;;;12.98;;
41263;SDS011;26998;48.714;9.414;2023-03-05T13:52:29;24.73;;;13.50;;
41263;SDS011;26998;48.714;9.414;2023-03-05T13:54:58;33.10;;;15.13;;
41263;SDS011;26998;48.714;9.414;2023-03-05T13:57:30;26.20;;;14.02;;
41263;SDS011;26998;48.714;9.414;2023-03-05T13:59:57;27.27;;;15.00;;
41263;SDS011;26998;48.714;9.414;2023-03-05T14:02:24;27.40;;;15.13;;
41263;SDS011;26998;48.714;9.414;2023-03-05T14:04:53;26.52;;;13.93;;
41263;SDS011;26998;48.714;9.414;2023-03-05T14:09:53;25.77;;;13.85;;
41263;SDS011;26998;48.714;9.414;2023-03-05T14:15:04;31.65;;;14.23;;
41263;SDS011;26998;48.714;9.414;2023-03-05T14:20:38;30.90;;;16.35;;
41263;SDS011;26998;48.714;9.414;2023-03-05T14:23:29;28.23;;;15.48;;
41263;SDS011;26998;48.714;9.414;2023-03-05T14:26:18;28.38;;;15.85;;
41263;SDS011;26998;48.714;9.414;2023-03-05T14:29:14;35.20;;;17.02;;
41263;SDS011;26998;48.714;9.414;2023-03-05T14:31:47;32.38;;;16.25;;
41263;SDS011;26998;48.714;9.414;2023-03-05T14:34:33;30.92;;;15.75;;
41263;SDS011;26998;48.714;9.414;2023-03-05T14:37:04;27.90;;;14.32;;
41263;SDS011;26998;48.714;9.414;2023-03-05T14:39:50;26.50;;;14.48;;
41263;SDS011;26998;48.714;9.414;2023-03-05T14:45:26;28.00;;;15.30;;
41263;SDS011;26998;48.714;9.414;2023-03-05T14:47:53;31.75;;;20.92;;
41263;SDS011;26998;48.714;9.414;2023-03-05T14:50:34;33.63;;;14.95;;
41263;SDS011;26998;48.714;9.414;2023-03-05T14:53:06;26.75;;;15.18;;
41263;SDS011;26998;48.714;9.414;2023-03-05T14:55:34;28.17;;;14.00;;
41263;SDS011;26998;48.714;9.414;2023-03-05T14:58:03;23.95;;;12.88;;
41263;SDS011;26998;48.714;9.414;2023-03-05T15:00:37;24.50;;;12.57;;
41263;SDS011;26998;48.714;9.414;2023-03-05T15:03:04;24.38;;;14.73;;
41263;SDS011;26998;48.714;9.414;2023-03-05T15:05:31;24.17;;;13.15;;
41263;SDS011;26998;48.714;9.414;2023-03-05T15:07:58;23.20;;;12.60;;
41263;SDS011;26998;48.714;9.414;2023-03-05T15:10:24;25.70;;;13.18;;
41263;SDS011;26998;48.714;9.414;2023-03-05T15:12:51;17.83;;;11.38;;
41263;SDS011;26998;48.714;9.414;2023-03-05T15:15:18;23.40;;;12.27;;
41263;SDS011;26998;48.714;9.414;2023-03-05T15:17:47;24.38;;;12.45;;
41263;SDS011;26998;48.714;9.414;2023-03-05T15:20:20;26.60;;;13.10;;
41263;SDS011;26998;48.714;9.414;2023-03-05T15:22:48;24.08;;;13.10;;
41263;SDS011;26998;48.714;9.414;2023-03-05T15:25:15;23.83;;;11.88;;
41263;SDS011;26998;48.714;9.414;2023-03-05T15:27:43;27.35;;;13.00;;
41263;SDS011;26998;48.714;9.414;2023-03-05T15:30:15;22.65;;;11.77;;
41263;SDS011;26998;48.714;9.414;2023-03-05T15:32:48;21.83;;;11.82;;
41263;SDS011;26998;48.714;9.414;2023-03-05T15:35:15;25.95;;;12.35;;
41263;SDS011;26998;48.714;9.414;2023-03-05T15:37:43;24.77;;;12.38;;
41263;SDS011;26998;48.714;9.414;2023-03-05T15:40:09;23.52;;;12.77;;
41263;SDS011;26998;48.714;9.414;2023-03-05T15:42:38;20.80;;;11.85;;
41263;SDS011;26998;48.714;9.414;2023-03-05T15:45:05;23.77;;;13.30;;